sensor_id;sensor_type;location;lat;lon;timestamp;pressure;altitude;pressure_sealevel;temperature;humidity
54854;BME280;40747;49.480;8.658;2022-12-18T00:02:02;101671.66;;;-8.47;100.00
54854;BME280;40747;49.480;8.658;2022-12-18T00:04:28;101668.72;;;-8.40;100.00
54854;BME280;40747;49.480;8.658;2022-12-18T00:06:53;101668.50;;;-8.43;100.00
54854;BME280;40747;49.480;8.658;2022-12-18T00:09:19;101668.50;;;-8.56;100.00
54854;BME280;40747;49.480;8.658;2022-12-18T00:11:45;101677.56;;;-8.48;100.00
54854;BME280;40747;49.480;8.658;2022-12-18T00:14:12;101673.94;;;-8.51;100.00
54854;BME280;40747;49.480;8.658;2022-12-18T00:16:38;101672.06;;;-8.54;100.00
54854;BME280;40747;49.480;8.658;2022-12-18T00:19:04;101665.16;;;-8.55;100.00
54854;BME280;40747;49.480;8.658;2022-12-18T00:21:31;101665.78;;;-8.46;100.00
54854;BME280;40747;49.480;8.658;2022-12-18T00:23:57;101656.78;;;-8.27;100.00
54854;BME280;40747;49.480;8.658;2022-12-18T00:26:31;101670.59;;;-8.12;100.00
54854;BME280;40747;49.480;8.658;2022-12-18T00:29:02;101674.69;;;-8.14;100.00
54854;BME280;40747;49.480;8.658;2022-12-18T00:31:28;101684.50;;;-8.20;100.00
54854;BME280;40747;49.480;8.658;2022-12-18T00:33:55;101674.97;;;-8.23;100.00
54854;BME280;40747;49.480;8.658;2022-12-18T00:36:25;101672.13;;;-8.27;100.00
54854;BME280;40747;49.480;8.658;2022-12-18T00:38:53;101681.06;;;-8.20;100.00
54854;BME280;40747;49.480;8.658;2022-12-18T00:41:18;101675.31;;;-8.04;100.00
54854;BME280;40747;49.480;8.658;2022-12-18T00:44:03;101660.97;;;-7.89;100.00
54854;BME280;40747;49.480;8.658;2022-12-18T00:46:29;101668.16;;;-7.83;100.00
54854;BME280;40747;49.480;8.658;2022-12-18T00:48:54;101684.97;;;-8.00;100.00
54854;BME280;40747;49.480;8.658;2022-12-18T00:51:19;101683.78;;;-8.05;100.00
54854;BME280;40747;49.480;8.658;2022-12-18T00:53:45;101685.34;;;-7.94;100.00
54854;BME280;40747;49.480;8.658;2022-12-18T00:56:10;101689.50;;;-7.96;100.00
54854;BME280;40747;49.480;8.658;2022-12-18T00:58:35;101686.34;;;-7.92;100.00
54854;BME280;40747;49.480;8.658;2022-12-18T01:01:00;101694.22;;;-7.89;100.00
54854;BME280;40747;49.480;8.658;2022-12-18T01:03:26;101690.88;;;-8.01;100.00
54854;BME280;40747;49.480;8.658;2022-12-18T01:05:51;101683.56;;;-8.09;100.00
54854;BME280;40747;49.480;8.658;2022-12-18T01:08:16;101686.84;;;-7.98;100.00
54854;BME280;40747;49.480;8.658;2022-12-18T01:10:42;101674.25;;;-7.81;100.00
54854;BME280;40747;49.480;8.658;2022-12-18T01:13:07;101679.09;;;-7.86;100.00
54854;BME280;40747;49.480;8.658;2022-12-18T01:15:32;101677.31;;;-8.00;100.00
54854;BME280;40747;49.480;8.658;2022-12-18T01:17:58;101670.09;;;-8.06;100.00
54854;BME280;40747;49.480;8.658;2022-12-18T01:20:23;101666.34;;;-8.11;100.00
54854;BME280;40747;49.480;8.658;2022-12-18T01:22:48;101665.06;;;-8.04;100.00
54854;BME280;40747;49.480;8.658;2022-12-18T01:25:13;101663.47;;;-8.16;100.00
54854;BME280;40747;49.480;8.658;2022-12-18T01:27:39;101667.63;;;-8.18;100.00
54854;BME280;40747;49.480;8.658;2022-12-18T01:30:04;101654.66;;;-7.94;100.00
54854;BME280;40747;49.480;8.658;2022-12-18T01:32:31;101643.25;;;-8.13;100.00
54854;BME280;40747;49.480;8.658;2022-12-18T01:34:56;101670.22;;;-7.78;100.00
54854;BME280;40747;49.480;8.658;2022-12-18T01:37:22;101673.22;;;-7.58;100.00
54854;BME280;40747;49.480;8.658;2022-12-18T01:39:47;101686.78;;;-7.46;100.00
54854;BME280;40747;49.480;8.658;2022-12-18T01:42:14;101689.25;;;-7.34;100.00
54854;BME280;40747;49.480;8.658;2022-12-18T01:45:03;101681.38;;;-7.37;100.00
54854;BME280;40747;49.480;8.658;2022-12-18T01:50:13;101696.78;;;-7.89;100.00
54854;BME280;40747;49.480;8.658;2022-12-18T01:52:42;101698.28;;;-7.79;100.00
54854;BME280;40747;49.480;8.658;2022-12-18T01:55:09;101694.66;;;-7.69;100.00
54854;BME280;40747;49.480;8.658;2022-12-18T01:57:35;101688.59;;;-7.97;100.00
54854;BME280;40747;49.480;8.658;2022-12-18T02:00:05;101683.25;;;-8.13;100.00
54854;BME280;40747;49.480;8.658;2022-12-18T02:02:32;101676.13;;;-8.31;100.00
54854;BME280;40747;49.480;8.658;2022-12-18T02:04:57;101677.50;;;-8.36;100.00
54854;BME280;40747;49.480;8.658;2022-12-18T02:07:57;101669.03;;;-8.35;100.00
54854;BME280;40747;49.480;8.658;2022-12-18T02:10:29;101679.97;;;-8.24;100.00
54854;BME280;40747;49.480;8.658;2022-12-18T02:13:19;101682.50;;;-8.37;100.00
54854;BME280;40747;49.480;8.658;2022-12-18T02:18:38;101701.38;;;-8.35;100.00
54854;BME280;40747;49.480;8.658;2022-12-18T02:21:33;101699.78;;;-8.47;100.00
54854;BME280;40747;49.480;8.658;2022-12-18T02:26:48;101674.94;;;-8.61;100.00
54854;BME280;40747;49.480;8.658;2022-12-18T02:29:18;101696.75;;;-8.66;100.00
54854;BME280;40747;49.480;8.658;2022-12-18T02:31:51;101707.28;;;-8.62;100.00
54854;BME280;40747;49.480;8.658;2022-12-18T02:34:18;101700.16;;;-8.54;100.00
54854;BME280;40747;49.480;8.658;2022-12-18T02:36:46;101696.31;;;-8.73;100.00
54854;BME280;40747;49.480;8.658;2022-12-18T02:39:13;101680.41;;;-8.68;100.00
54854;BME280;40747;49.480;8.658;2022-12-18T02:41:40;101684.59;;;-8.57;100.00
54854;BME280;40747;49.480;8.658;2022-12-18T02:44:10;101662.00;;;-8.76;100.00
54854;BME280;40747;49.480;8.658;2022-12-18T02:46:40;101676.03;;;-8.83;100.00
54854;BME280;40747;49.480;8.658;2022-12-18T02:49:31;101674.81;;;-8.88;100.00
54854;BME280;40747;49.480;8.658;2022-12-18T02:52:13;101667.50;;;-8.95;100.00
54854;BME280;40747;49.480;8.658;2022-12-18T02:57:53;101659.94;;;-8.57;100.00
54854;BME280;40747;49.480;8.658;2022-12-18T03:00:23;101628.19;;;-8.60;100.00
54854;BME280;40747;49.480;8.658;2022-12-18T03:02:55;101641.59;;;-8.51;100.00
54854;BME280;40747;49.480;8.658;2022-12-18T03:05:26;101655.72;;;-8.43;100.00
54854;BME280;40747;49.480;8.658;2022-12-18T03:08:03;101657.66;;;-8.65;100.00
54854;BME280;40747;49.480;8.658;2022-12-18T03:10:35;101651.53;;;-8.67;100.00
54854;BME280;40747;49.480;8.658;2022-12-18T03:13:06;101655.13;;;-8.52;100.00
54854;BME280;40747;49.480;8.658;2022-12-18T03:15:41;101677.94;;;-8.42;100.00
54854;BME280;40747;49.480;8.658;2022-12-18T03:18:08;101683.78;;;-8.31;100.00
54854;BME280;40747;49.480;8.658;2022-12-18T03:20:37;101702.72;;;-8.54;100.00
54854;BME280;40747;49.480;8.658;2022-12-18T03:23:13;101697.75;;;-8.76;100.00
54854;BME280;40747;49.480;8.658;2022-12-18T03:25:42;101709.13;;;-8.84;100.00
54854;BME280;40747;49.480;8.658;2022-12-18T03:28:13;101706.94;;;-9.03;100.00
54854;BME280;40747;49.480;8.658;2022-12-18T03:30:41;101699.41;;;-9.14;100.00
54854;BME280;40747;49.480;8.658;2022-12-18T03:33:12;101698.09;;;-9.20;100.00
54854;BME280;40747;49.480;8.658;2022-12-18T03:35:42;101674.44;;;-9.30;100.00
54854;BME280;40747;49.480;8.658;2022-12-18T03:38:09;101642.84;;;-9.44;100.00
54854;BME280;40747;49.480;8.658;2022-12-18T03:43:20;101663.00;;;-9.11;100.00
54854;BME280;40747;49.480;8.658;2022-12-18T03:45:54;101685.28;;;-8.97;100.00
54854;BME280;40747;49.480;8.658;2022-12-18T03:48:36;101675.06;;;-8.97;100.00
54854;BME280;40747;49.480;8.658;2022-12-18T03:51:16;101668.91;;;-9.24;100.00
54854;BME280;40747;49.480;8.658;2022-12-18T03:53:52;101669.34;;;-9.42;100.00
54854;BME280;40747;49.480;8.658;2022-12-18T03:56:21;101670.34;;;-9.28;100.00
54854;BME280;40747;49.480;8.658;2022-12-18T03:58:49;101678.88;;;-9.27;100.00
54854;BME280;40747;49.480;8.658;2022-12-18T04:01:17;101671.13;;;-9.29;100.00
54854;BME280;40747;49.480;8.658;2022-12-18T04:03:46;101670.00;;;-9.32;100.00
54854;BME280;40747;49.480;8.658;2022-12-18T04:06:15;101676.78;;;-9.33;100.00
54854;BME280;40747;49.480;8.658;2022-12-18T04:08:42;101682.47;;;-9.37;100.00
54854;BME280;40747;49.480;8.658;2022-12-18T04:11:07;101678.22;;;-9.25;100.00
54854;BME280;40747;49.480;8.658;2022-12-18T04:13:36;101683.66;;;-9.20;100.00
54854;BME280;40747;49.480;8.658;2022-12-18T04:16:01;101684.94;;;-9.01;100.00
54854;BME280;40747;49.480;8.658;2022-12-18T04:18:27;101676.75;;;-9.09;100.00
54854;BME280;40747;49.480;8.658;2022-12-18T04:20:52;101672.16;;;-9.01;100.00
54854;BME280;40747;49.480;8.658;2022-12-18T04:23:18;101684.47;;;-8.84;100.00
54854;BME280;40747;49.480;8.658;2022-12-18T04:25:43;101677.41;;;-9.00;100.00
54854;BME280;40747;49.480;8.658;2022-12-18T04:28:08;101676.97;;;-8.69;100.00
54854;BME280;40747;49.480;8.658;2022-12-18T04:30:34;101673.47;;;-8.83;100.00
54854;BME280;40747;49.480;8.658;2022-12-18T04:32:59;101661.47;;;-8.84;100.00
54854;BME280;40747;49.480;8.658;2022-12-18T04:35:24;101648.38;;;-8.77;100.00
54854;BME280;40747;49.480;8.658;2022-12-18T04:37:50;101657.50;;;-8.92;100.00
54854;BME280;40747;49.480;8.658;2022-12-18T04:40:15;101657.56;;;-8.79;100.00
54854;BME280;40747;49.480;8.658;2022-12-18T04:42:40;101655.94;;;-8.78;100.00
54854;BME280;40747;49.480;8.658;2022-12-18T04:45:06;101658.31;;;-8.68;100.00
54854;BME280;40747;49.480;8.658;2022-12-18T04:47:32;101652.84;;;-8.86;100.00
54854;BME280;40747;49.480;8.658;2022-12-18T04:49:57;101619.84;;;-9.20;100.00
54854;BME280;40747;49.480;8.658;2022-12-18T04:52:22;101656.78;;;-9.15;100.00
54854;BME280;40747;49.480;8.658;2022-12-18T04:54:48;101672.44;;;-9.10;100.00
54854;BME280;40747;49.480;8.658;2022-12-18T04:57:13;101670.28;;;-8.92;100.00
54854;BME280;40747;49.480;8.658;2022-12-18T04:59:38;101674.19;;;-8.97;100.00
54854;BME280;40747;49.480;8.658;2022-12-18T05:02:04;101676.84;;;-8.96;100.00
54854;BME280;40747;49.480;8.658;2022-12-18T05:04:29;101667.00;;;-9.39;100.00
54854;BME280;40747;49.480;8.658;2022-12-18T05:06:54;101671.13;;;-9.64;100.00
54854;BME280;40747;49.480;8.658;2022-12-18T05:09:19;101684.09;;;-9.73;100.00
54854;BME280;40747;49.480;8.658;2022-12-18T05:11:45;101695.09;;;-9.62;100.00
54854;BME280;40747;49.480;8.658;2022-12-18T05:14:11;101691.19;;;-9.33;100.00
54854;BME280;40747;49.480;8.658;2022-12-18T05:16:36;101683.31;;;-9.13;100.00
54854;BME280;40747;49.480;8.658;2022-12-18T05:19:02;101696.41;;;-9.20;100.00
54854;BME280;40747;49.480;8.658;2022-12-18T05:21:27;101692.31;;;-9.18;100.00
54854;BME280;40747;49.480;8.658;2022-12-18T05:23:52;101703.50;;;-9.16;100.00
54854;BME280;40747;49.480;8.658;2022-12-18T05:26:18;101698.06;;;-9.09;100.00
54854;BME280;40747;49.480;8.658;2022-12-18T05:28:43;101709.47;;;-8.92;100.00
54854;BME280;40747;49.480;8.658;2022-12-18T05:31:09;101707.28;;;-8.99;100.00
54854;BME280;40747;49.480;8.658;2022-12-18T05:33:35;101697.13;;;-8.85;100.00
54854;BME280;40747;49.480;8.658;2022-12-18T05:36:07;101704.81;;;-8.97;100.00
54854;BME280;40747;49.480;8.658;2022-12-18T05:38:35;101694.25;;;-8.90;100.00
54854;BME280;40747;49.480;8.658;2022-12-18T05:41:02;101707.03;;;-9.02;100.00
54854;BME280;40747;49.480;8.658;2022-12-18T05:43:28;101689.41;;;-8.62;100.00
54854;BME280;40747;49.480;8.658;2022-12-18T05:45:54;101689.00;;;-8.80;100.00
54854;BME280;40747;49.480;8.658;2022-12-18T05:48:21;101693.91;;;-8.83;100.00
54854;BME280;40747;49.480;8.658;2022-12-18T05:50:47;101696.84;;;-8.65;100.00
54854;BME280;40747;49.480;8.658;2022-12-18T05:53:15;101692.56;;;-8.78;100.00
54854;BME280;40747;49.480;8.658;2022-12-18T05:55:42;101681.16;;;-9.07;100.00
54854;BME280;40747;49.480;8.658;2022-12-18T05:58:08;101660.44;;;-9.11;100.00
54854;BME280;40747;49.480;8.658;2022-12-18T06:00:36;101666.00;;;-9.17;100.00
54854;BME280;40747;49.480;8.658;2022-12-18T06:03:05;101666.91;;;-9.28;100.00
54854;BME280;40747;49.480;8.658;2022-12-18T06:05:35;101670.25;;;-9.29;100.00
54854;BME280;40747;49.480;8.658;2022-12-18T06:08:00;101684.00;;;-9.15;100.00
54854;BME280;40747;49.480;8.658;2022-12-18T06:10:26;101693.53;;;-9.13;100.00
54854;BME280;40747;49.480;8.658;2022-12-18T06:12:51;101689.50;;;-8.97;100.00
54854;BME280;40747;49.480;8.658;2022-12-18T06:15:16;101692.13;;;-8.84;100.00
54854;BME280;40747;49.480;8.658;2022-12-18T06:17:41;101691.94;;;-9.11;100.00
54854;BME280;40747;49.480;8.658;2022-12-18T06:20:07;101690.47;;;-8.95;100.00
54854;BME280;40747;49.480;8.658;2022-12-18T06:22:32;101707.13;;;-8.88;100.00
54854;BME280;40747;49.480;8.658;2022-12-18T06:24:58;101706.75;;;-8.69;100.00
54854;BME280;40747;49.480;8.658;2022-12-18T06:27:24;101710.38;;;-8.91;100.00
54854;BME280;40747;49.480;8.658;2022-12-18T06:29:50;101705.31;;;-9.27;100.00
54854;BME280;40747;49.480;8.658;2022-12-18T06:32:15;101714.81;;;-9.00;100.00
54854;BME280;40747;49.480;8.658;2022-12-18T06:34:40;101715.16;;;-9.08;100.00
54854;BME280;40747;49.480;8.658;2022-12-18T06:37:06;101717.03;;;-9.17;100.00
54854;BME280;40747;49.480;8.658;2022-12-18T06:39:31;101718.69;;;-8.94;100.00
54854;BME280;40747;49.480;8.658;2022-12-18T06:41:56;101725.25;;;-9.21;100.00
54854;BME280;40747;49.480;8.658;2022-12-18T06:44:22;101721.28;;;-9.29;100.00
54854;BME280;40747;49.480;8.658;2022-12-18T06:46:47;101712.63;;;-9.08;100.00
54854;BME280;40747;49.480;8.658;2022-12-18T06:49:12;101726.09;;;-8.85;100.00
54854;BME280;40747;49.480;8.658;2022-12-18T06:51:38;101728.00;;;-8.94;100.00
54854;BME280;40747;49.480;8.658;2022-12-18T06:54:03;101699.28;;;-9.75;100.00
54854;BME280;40747;49.480;8.658;2022-12-18T06:56:29;101746.28;;;-9.83;100.00
54854;BME280;40747;49.480;8.658;2022-12-18T06:58:54;101755.34;;;-9.98;100.00
54854;BME280;40747;49.480;8.658;2022-12-18T07:01:20;101763.47;;;-9.80;100.00
54854;BME280;40747;49.480;8.658;2022-12-18T07:03:45;101764.03;;;-9.84;100.00
54854;BME280;40747;49.480;8.658;2022-12-18T07:06:16;101760.19;;;-10.01;100.00
54854;BME280;40747;49.480;8.658;2022-12-18T07:08:42;101764.53;;;-10.00;100.00
54854;BME280;40747;49.480;8.658;2022-12-18T07:11:08;101764.63;;;-9.99;100.00
54854;BME280;40747;49.480;8.658;2022-12-18T07:13:33;101763.94;;;-10.08;100.00
54854;BME280;40747;49.480;8.658;2022-12-18T07:16:18;101765.25;;;-10.13;100.00
54854;BME280;40747;49.480;8.658;2022-12-18T07:18:44;101769.59;;;-10.12;100.00
54854;BME280;40747;49.480;8.658;2022-12-18T07:21:13;101771.22;;;-10.13;100.00
54854;BME280;40747;49.480;8.658;2022-12-18T07:23:39;101759.63;;;-10.09;100.00
54854;BME280;40747;49.480;8.658;2022-12-18T07:26:12;101774.81;;;-9.77;100.00
54854;BME280;40747;49.480;8.658;2022-12-18T07:28:39;101768.84;;;-9.99;100.00
54854;BME280;40747;49.480;8.658;2022-12-18T07:31:12;101770.16;;;-10.05;100.00
54854;BME280;40747;49.480;8.658;2022-12-18T07:33:38;101774.00;;;-9.76;100.00
54854;BME280;40747;49.480;8.658;2022-12-18T07:36:05;101778.72;;;-9.58;100.00
54854;BME280;40747;49.480;8.658;2022-12-18T07:38:31;101778.84;;;-9.45;100.00
54854;BME280;40747;49.480;8.658;2022-12-18T07:41:01;101773.19;;;-9.52;100.00
54854;BME280;40747;49.480;8.658;2022-12-18T07:43:27;101770.75;;;-9.63;100.00
54854;BME280;40747;49.480;8.658;2022-12-18T07:45:52;101762.72;;;-9.67;100.00
54854;BME280;40747;49.480;8.658;2022-12-18T07:48:17;101770.03;;;-9.72;100.00
54854;BME280;40747;49.480;8.658;2022-12-18T07:50:43;101714.00;;;-9.94;100.00
54854;BME280;40747;49.480;8.658;2022-12-18T07:53:08;101752.28;;;-9.71;100.00
54854;BME280;40747;49.480;8.658;2022-12-18T07:55:34;101754.56;;;-9.28;100.00
54854;BME280;40747;49.480;8.658;2022-12-18T07:58:03;101752.78;;;-9.29;100.00
54854;BME280;40747;49.480;8.658;2022-12-18T08:00:29;101754.78;;;-9.60;100.00
54854;BME280;40747;49.480;8.658;2022-12-18T08:02:54;101760.47;;;-9.75;100.00
54854;BME280;40747;49.480;8.658;2022-12-18T08:05:19;101769.13;;;-9.84;100.00
54854;BME280;40747;49.480;8.658;2022-12-18T08:07:46;101773.44;;;-9.83;100.00
54854;BME280;40747;49.480;8.658;2022-12-18T08:10:11;101756.53;;;-10.05;100.00
54854;BME280;40747;49.480;8.658;2022-12-18T08:12:36;101763.56;;;-9.91;100.00
54854;BME280;40747;49.480;8.658;2022-12-18T08:15:02;101762.19;;;-9.97;100.00
54854;BME280;40747;49.480;8.658;2022-12-18T08:17:27;101763.56;;;-9.91;100.00
54854;BME280;40747;49.480;8.658;2022-12-18T08:19:52;101765.72;;;-10.07;100.00
54854;BME280;40747;49.480;8.658;2022-12-18T08:22:18;101770.25;;;-10.15;100.00
54854;BME280;40747;49.480;8.658;2022-12-18T08:24:43;101765.38;;;-10.12;100.00
54854;BME280;40747;49.480;8.658;2022-12-18T08:27:08;101769.22;;;-10.17;100.00
54854;BME280;40747;49.480;8.658;2022-12-18T08:29:33;101744.56;;;-10.06;100.00
54854;BME280;40747;49.480;8.658;2022-12-18T08:31:59;101768.56;;;-10.14;100.00
54854;BME280;40747;49.480;8.658;2022-12-18T08:34:24;101770.31;;;-9.91;100.00
54854;BME280;40747;49.480;8.658;2022-12-18T08:36:50;101768.91;;;-9.76;100.00
54854;BME280;40747;49.480;8.658;2022-12-18T08:39:15;101778.00;;;-9.79;100.00
54854;BME280;40747;49.480;8.658;2022-12-18T08:41:40;101773.59;;;-9.70;100.00
54854;BME280;40747;49.480;8.658;2022-12-18T08:44:07;101769.84;;;-9.51;100.00
54854;BME280;40747;49.480;8.658;2022-12-18T08:46:51;101759.41;;;-9.55;100.00
54854;BME280;40747;49.480;8.658;2022-12-18T08:49:17;101745.03;;;-9.30;100.00
54854;BME280;40747;49.480;8.658;2022-12-18T08:51:42;101738.59;;;-9.37;100.00
54854;BME280;40747;49.480;8.658;2022-12-18T08:54:11;101737.25;;;-9.20;100.00
54854;BME280;40747;49.480;8.658;2022-12-18T08:56:36;101734.22;;;-8.91;100.00
54854;BME280;40747;49.480;8.658;2022-12-18T08:59:01;101719.47;;;-9.07;100.00
54854;BME280;40747;49.480;8.658;2022-12-18T09:01:27;101737.72;;;-9.26;100.00
54854;BME280;40747;49.480;8.658;2022-12-18T09:03:53;101726.91;;;-8.98;100.00
54854;BME280;40747;49.480;8.658;2022-12-18T09:06:20;101715.81;;;-8.98;100.00
54854;BME280;40747;49.480;8.658;2022-12-18T09:08:46;101717.53;;;-8.74;100.00
54854;BME280;40747;49.480;8.658;2022-12-18T09:11:15;101713.19;;;-8.63;100.00
54854;BME280;40747;49.480;8.658;2022-12-18T09:13:42;101694.19;;;-8.66;100.00
54854;BME280;40747;49.480;8.658;2022-12-18T09:16:08;101704.19;;;-8.44;100.00
54854;BME280;40747;49.480;8.658;2022-12-18T09:18:33;101689.25;;;-8.38;100.00
54854;BME280;40747;49.480;8.658;2022-12-18T09:20:59;101695.72;;;-8.18;100.00
54854;BME280;40747;49.480;8.658;2022-12-18T09:23:24;101714.47;;;-8.05;100.00
54854;BME280;40747;49.480;8.658;2022-12-18T09:25:49;101712.63;;;-8.20;100.00
54854;BME280;40747;49.480;8.658;2022-12-18T09:28:18;101709.50;;;-8.16;100.00
54854;BME280;40747;49.480;8.658;2022-12-18T09:30:48;101712.09;;;-8.28;100.00
54854;BME280;40747;49.480;8.658;2022-12-18T09:33:14;101686.34;;;-8.31;100.00
54854;BME280;40747;49.480;8.658;2022-12-18T09:35:41;101720.97;;;-7.97;100.00
54854;BME280;40747;49.480;8.658;2022-12-18T09:38:09;101733.16;;;-8.07;100.00
54854;BME280;40747;49.480;8.658;2022-12-18T09:40:41;101725.66;;;-8.29;100.00
54854;BME280;40747;49.480;8.658;2022-12-18T09:43:14;101741.94;;;-8.40;100.00
54854;BME280;40747;49.480;8.658;2022-12-18T09:45:44;101737.94;;;-8.11;100.00
54854;BME280;40747;49.480;8.658;2022-12-18T09:48:28;101744.59;;;-7.88;100.00
54854;BME280;40747;49.480;8.658;2022-12-18T09:51:00;101739.81;;;-7.70;100.00
54854;BME280;40747;49.480;8.658;2022-12-18T09:53:31;101757.88;;;-7.42;100.00
54854;BME280;40747;49.480;8.658;2022-12-18T09:55:57;101761.59;;;-7.50;100.00
54854;BME280;40747;49.480;8.658;2022-12-18T10:00:57;101772.72;;;-7.88;100.00
54854;BME280;40747;49.480;8.658;2022-12-18T10:03:22;101778.88;;;-7.72;100.00
54854;BME280;40747;49.480;8.658;2022-12-18T10:08:51;101769.28;;;-7.63;100.00
54854;BME280;40747;49.480;8.658;2022-12-18T10:11:53;101761.78;;;-7.47;100.00
54854;BME280;40747;49.480;8.658;2022-12-18T10:14:34;101757.06;;;-7.54;100.00
54854;BME280;40747;49.480;8.658;2022-12-18T10:19:59;101761.63;;;-7.36;100.00
54854;BME280;40747;49.480;8.658;2022-12-18T10:22:58;101755.59;;;-7.37;100.00
54854;BME280;40747;49.480;8.658;2022-12-18T10:25:41;101761.03;;;-7.19;100.00
54854;BME280;40747;49.480;8.658;2022-12-18T10:28:13;101758.97;;;-7.11;100.00
54854;BME280;40747;49.480;8.658;2022-12-18T10:30:40;101761.31;;;-7.01;100.00
54854;BME280;40747;49.480;8.658;2022-12-18T10:33:11;101763.09;;;-7.00;100.00
54854;BME280;40747;49.480;8.658;2022-12-18T10:35:40;101760.25;;;-6.78;100.00
54854;BME280;40747;49.480;8.658;2022-12-18T10:38:20;101751.94;;;-6.73;100.00
54854;BME280;40747;49.480;8.658;2022-12-18T10:41:02;101730.31;;;-7.19;100.00
54854;BME280;40747;49.480;8.658;2022-12-18T10:43:36;101739.75;;;-6.91;100.00
54854;BME280;40747;49.480;8.658;2022-12-18T10:51:26;101708.19;;;-6.77;100.00
54854;BME280;40747;49.480;8.658;2022-12-18T10:53:59;101704.00;;;-6.61;100.00
54854;BME280;40747;49.480;8.658;2022-12-18T10:56:27;101708.84;;;-6.37;100.00
54854;BME280;40747;49.480;8.658;2022-12-18T11:01:26;101725.53;;;-6.16;100.00
54854;BME280;40747;49.480;8.658;2022-12-18T11:04:00;101727.09;;;-6.18;100.00
54854;BME280;40747;49.480;8.658;2022-12-18T11:06:26;101730.91;;;-6.26;100.00
54854;BME280;40747;49.480;8.658;2022-12-18T11:09:00;101724.38;;;-6.21;100.00
54854;BME280;40747;49.480;8.658;2022-12-18T11:11:26;101719.41;;;-6.18;100.00
54854;BME280;40747;49.480;8.658;2022-12-18T11:13:59;101729.28;;;-6.39;100.00
54854;BME280;40747;49.480;8.658;2022-12-18T11:16:27;101716.78;;;-6.48;100.00
54854;BME280;40747;49.480;8.658;2022-12-18T11:18:53;101725.38;;;-6.19;100.00
54854;BME280;40747;49.480;8.658;2022-12-18T11:21:18;101731.81;;;-6.11;100.00
54854;BME280;40747;49.480;8.658;2022-12-18T11:23:47;101740.41;;;-6.10;100.00
54854;BME280;40747;49.480;8.658;2022-12-18T11:26:14;101738.19;;;-6.19;100.00
54854;BME280;40747;49.480;8.658;2022-12-18T11:28:43;101732.56;;;-6.27;100.00
54854;BME280;40747;49.480;8.658;2022-12-18T11:31:25;101735.50;;;-6.20;100.00
54854;BME280;40747;49.480;8.658;2022-12-18T11:36:44;101739.53;;;-6.11;100.00
54854;BME280;40747;49.480;8.658;2022-12-18T11:39:17;101736.41;;;-5.90;100.00
54854;BME280;40747;49.480;8.658;2022-12-18T11:41:52;101739.44;;;-5.82;100.00
54854;BME280;40747;49.480;8.658;2022-12-18T11:44:59;101741.03;;;-5.69;100.00
54854;BME280;40747;49.480;8.658;2022-12-18T11:47:56;101735.63;;;-5.59;100.00
54854;BME280;40747;49.480;8.658;2022-12-18T11:50:31;101731.91;;;-5.64;100.00
54854;BME280;40747;49.480;8.658;2022-12-18T11:52:58;101724.50;;;-5.60;100.00
54854;BME280;40747;49.480;8.658;2022-12-18T11:55:57;101717.22;;;-5.67;100.00
54854;BME280;40747;49.480;8.658;2022-12-18T11:58:46;101699.59;;;-5.76;100.00
54854;BME280;40747;49.480;8.658;2022-12-18T12:15:13;101698.63;;;-5.33;100.00
54854;BME280;40747;49.480;8.658;2022-12-18T12:17:37;101712.16;;;-5.35;100.00
54854;BME280;40747;49.480;8.658;2022-12-18T12:23:02;101706.66;;;-5.27;100.00
54854;BME280;40747;49.480;8.658;2022-12-18T12:25:41;101709.47;;;-5.22;100.00
54854;BME280;40747;49.480;8.658;2022-12-18T12:28:19;101703.88;;;-5.15;100.00
54854;BME280;40747;49.480;8.658;2022-12-18T12:34:06;101699.59;;;-4.68;100.00
54854;BME280;40747;49.480;8.658;2022-12-18T12:36:44;101692.31;;;-4.91;100.00
54854;BME280;40747;49.480;8.658;2022-12-18T12:39:18;101701.16;;;-4.86;100.00
54854;BME280;40747;49.480;8.658;2022-12-18T12:41:46;101705.34;;;-4.72;100.00
54854;BME280;40747;49.480;8.658;2022-12-18T12:44:43;101703.50;;;-4.41;100.00
54854;BME280;40747;49.480;8.658;2022-12-18T12:47:23;101699.69;;;-4.33;100.00
54854;BME280;40747;49.480;8.658;2022-12-18T12:49:50;101666.72;;;-4.57;100.00
54854;BME280;40747;49.480;8.658;2022-12-18T12:52:26;101668.00;;;-4.82;100.00
54854;BME280;40747;49.480;8.658;2022-12-18T12:54:53;101655.59;;;-4.89;100.00
54854;BME280;40747;49.480;8.658;2022-12-18T12:57:40;101654.81;;;-4.88;100.00
54854;BME280;40747;49.480;8.658;2022-12-18T13:00:11;101646.13;;;-4.90;100.00
54854;BME280;40747;49.480;8.658;2022-12-18T13:03:01;101636.97;;;-4.85;100.00
54854;BME280;40747;49.480;8.658;2022-12-18T13:05:34;101639.63;;;-4.67;100.00
54854;BME280;40747;49.480;8.658;2022-12-18T13:08:06;101628.72;;;-4.79;100.00
54854;BME280;40747;49.480;8.658;2022-12-18T13:13:08;101628.13;;;-4.90;100.00
54854;BME280;40747;49.480;8.658;2022-12-18T13:15:38;101626.47;;;-4.89;100.00
54854;BME280;40747;49.480;8.658;2022-12-18T13:18:21;101619.53;;;-4.90;100.00
54854;BME280;40747;49.480;8.658;2022-12-18T13:20:53;101617.78;;;-4.91;100.00
54854;BME280;40747;49.480;8.658;2022-12-18T13:23:33;101604.84;;;-4.93;100.00
54854;BME280;40747;49.480;8.658;2022-12-18T13:31:58;101608.22;;;-4.94;100.00
54854;BME280;40747;49.480;8.658;2022-12-18T13:36:41;101608.53;;;-4.88;100.00
54854;BME280;40747;49.480;8.658;2022-12-18T13:39:11;101613.03;;;-4.84;100.00
54854;BME280;40747;49.480;8.658;2022-12-18T13:41:41;101605.25;;;-4.85;100.00
54854;BME280;40747;49.480;8.658;2022-12-18T13:44:34;101606.31;;;-4.82;100.00
54854;BME280;40747;49.480;8.658;2022-12-18T13:46:58;101607.91;;;-4.67;100.00
54854;BME280;40747;49.480;8.658;2022-12-18T13:52:00;101594.50;;;-4.95;100.00
54854;BME280;40747;49.480;8.658;2022-12-18T13:54:37;101596.66;;;-4.86;100.00
54854;BME280;40747;49.480;8.658;2022-12-18T13:57:05;101592.78;;;-4.94;100.00
54854;BME280;40747;49.480;8.658;2022-12-18T13:59:38;101600.19;;;-4.84;100.00